SANE/SDE METAR and TAF weather

Enter ICAO airport designator
Station Type Date Time Source
SANE METAR 2019/11/20 23:10 UTC NOAA

SANE 202310Z 14009G25KT 9999 BKN020 FEW050CB 34/18 Q1001


Station Type Date Time Source
SANE Decoded METAR 2019/11/20 23:10 UTC NOAA

Santiago Del Estero Aero., Argentina (SANE) 27-46S 064-18W 199M
Nov 20, 2019 - 06:10 PM EST / 2019.11.20 2310 UTC
Wind: from the SE (140 degrees) at 10 MPH (9 KT) gusting to 29 MPH (25 KT):0
Visibility: greater than 7 mile(s):0
Sky conditions: mostly cloudy
Weather: Cumulonimbus clouds observed
Temperature: 93 F (34 C)
Heat index: 94.6 F (34.8 C):1
Dew Point: 64 F (18 C)
Relative Humidity: 38%
Pressure (altimeter): 29.56 in. Hg (1001 hPa)
ob: SANE 202310Z 14009G25KT 9999 BKN020 FEW050CB 34/18 Q1001
cycle: 23

Station Type Date Time Source
SANE TAF 2019/10/19 00:51 UTC NOAA

TAF TAF SANE 192300Z 2000/2024 09005KT 9999 NSC TX28/2018Z TN13/2010Z
TEMPO 2008/2011 VRB02KT 5000 BR BKN015
BECMG 2012/2014 16010KT

Example: see airport list